CanjetBLOCKVirtuelBLOCKQcBLOCKBLOCKBLOCKBLOCKBLOCKBLOCKBLOCKBLOCKBLOCKBLOCKBLOCKvolsBLOCKavecBLOCKFS-kACARS2020-08-09BLOCK07colon32am

volsBLOCKBLOCKBLOCKBLOCKBLOCKpilotesBLOCKBLOCKBLOCKBLOCKBLOCKBLOCKBLOCKBLOCKtypeBLOCKBLOCKdepBLOCKBLOCKarrBLOCKBLOCKBLOCKBLOCKBLOCKaltBLOCKBLOCKBLOCKBLOCKBLOCKgsBLOCKBLOCKBLOCKBLOCKstatut

CJA7101StephaneBLOCKGB77LOYSN-CYUL0ft0ktsarrived
CJA7085YvanBLOCKRB77LPAKT-LSZH35043ft482kts10colon14am











BLOCKAppuyerBLOCKsurBLOCKF5BLOCKpourBLOCKactualiserBLOCKBLOCKBLOCKMiseBLOCKaBLOCKjourcolonBLOCK07colon32colon29amCanjetBLOCKvirtuelBLOCKQC

Covid19

Publié par Michel Ayotte le 2020-05-11

Canjetvirtuel-Québec est fière des Anges Gardiens de la Santé ainsi que ceux des Services sociaux

 

Bravo à tous et merci 


Ça va bien aller!           

 

Vous trouverez votre place comme pilote chez nous!


Microsoft flight sim 2020

Publié par Yvan Roy le 2019-06-25

 

Microsoft flight simulator 2020 est présentement en prévente et disponible le 18 aôut 2020, Version Standard $79.99 , Deluxe $119.99 et Premium Deluxe $159.99

https://www.microsoft.com/en-CA/p/microsoft-flight-simulator-premium-deluxe-preorder/9pmdbl7963ld?activetab=pivot:regionofcompareeditionstab

 



                                                   

 





                                                   


Bienvenue chez Canjetvirtuel-Q

Publié par Michel Ayotte le 2013-06-14

 

Canjetvirtuel-Québec est une compagnie aérienne virtuelle qui a été fondée par 2 passionnés de la simulation de vol.

Elle est opérée avec les Boeing 737. Exceptionnelement et pour votre plaisir tous les autres versions de Boeing et Airbus sont autorisés.

Ces appareils pouvant faire des vols cargos ou des vols passagers,que ce soit au Canada, Europe, États-Unis, Mexique et Caraïbes.

Vous trouverez votre place comme pilote chez nous!



Avis

Aux fins de la simulation de vol seulement. CanjetVirtuel Québec n'est en aucun cas affilié avec n'importe quelle compagnie aérienne du monde réel. CanjetVirtuel Québec est un site à but non lucratif gérée par des amateurs de simulation de vol. Toutes les images sont la propriété exclusive de leurs propriétaires respectifs.
| propulsé par phpVMS, © 2013-2020.

Notice

For flight simulation purposes only. CanjetVirtuel Quebec is in no way affiliated with any real world airline. CanjetVirtuel Quebec is a non-profit site run by flight simulation enthusiasts. All images are the sole property of their respective owners.
| powered by phpVMS, © 2013-2020.

Affiliations

Vatsim

Les statistiques du site

Nombre de pilotes: 15
Total des vols effectués: 6586
Trajets disponibles: 627
Passagers transportés: 1769754
Total des heures de vol: 21488
Distance totale (NM): 8414869
Pilotes en ligne: 1

Nouvelles

Covid19
05/11/2020
Microsoft flight sim 2020
06/25/2019
Bienvenue chez Canjetvirtuel-Q
06/14/2013

METAR

CYHZ 091100Z 27005KT 15SM FEW260 20/13 A3005 RMK CI1 CI TR SLP178 DENSITY ALT 1000FT

CYQB 091100Z VRB02KT 15SM FEW025 FEW070 BKN230 17/16 A3003 RMK SF1AC1CI6 SF TR AC TR SLP172 DENSITY ALT 400FT

CYUL 091100Z 23012KT 30SM FEW055 BKN180 OVC250 22/19 A3004 RMK CU2AC4CI2 SLP173 DENSITY ALT 800FT

CYYZ 091100Z 19005KT 15SM FEW045 SCT080 BKN140 BKN250 21/17 A3006 RMK SC2AC2AC2CI1 CB TOPS DIST W-E SLP180 DENSITY ALT 1300FT